sensor_id;sensor_type;location;lat;lon;timestamp;P1;durP1;ratioP1;P2;durP2;ratioP2
3967;SDS011;9221;42.646;23.380;2024-03-02T00:02:15;51.83;;;13.33;;
3967;SDS011;9221;42.646;23.380;2024-03-02T00:04:43;36.60;;;12.43;;
3967;SDS011;9221;42.646;23.380;2024-03-02T00:07:10;38.97;;;12.83;;
3967;SDS011;9221;42.646;23.380;2024-03-02T00:09:39;18.70;;;6.57;;
3967;SDS011;9221;42.646;23.380;2024-03-02T00:12:04;31.40;;;10.57;;
3967;SDS011;9221;42.646;23.380;2024-03-02T00:14:30;36.80;;;12.27;;
3967;SDS011;9221;42.646;23.380;2024-03-02T00:16:56;26.37;;;8.93;;
3967;SDS011;9221;42.646;23.380;2024-03-02T00:19:21;42.80;;;12.63;;
3967;SDS011;9221;42.646;23.380;2024-03-02T00:21:47;41.13;;;12.47;;
3967;SDS011;9221;42.646;23.380;2024-03-02T00:24:34;36.93;;;12.37;;
3967;SDS011;9221;42.646;23.380;2024-03-02T00:27:01;34.97;;;12.60;;
3967;SDS011;9221;42.646;23.380;2024-03-02T00:29:29;36.50;;;12.63;;
3967;SDS011;9221;42.646;23.380;2024-03-02T00:31:55;39.27;;;13.50;;
3967;SDS011;9221;42.646;23.380;2024-03-02T00:34:20;40.37;;;12.70;;
3967;SDS011;9221;42.646;23.380;2024-03-02T00:36:47;37.07;;;11.70;;
3967;SDS011;9221;42.646;23.380;2024-03-02T00:39:14;30.57;;;10.83;;
3967;SDS011;9221;42.646;23.380;2024-03-02T00:41:42;38.70;;;13.43;;
3967;SDS011;9221;42.646;23.380;2024-03-02T00:44:09;36.77;;;12.83;;
3967;SDS011;9221;42.646;23.380;2024-03-02T00:46:40;39.40;;;12.60;;
3967;SDS011;9221;42.646;23.380;2024-03-02T00:49:21;42.63;;;12.70;;
3967;SDS011;9221;42.646;23.380;2024-03-02T00:51:48;34.23;;;11.80;;
3967;SDS011;9221;42.646;23.380;2024-03-02T00:54:15;36.30;;;11.90;;
3967;SDS011;9221;42.646;23.380;2024-03-02T00:56:43;36.03;;;12.00;;
3967;SDS011;9221;42.646;23.380;2024-03-02T00:59:10;40.60;;;11.87;;
3967;SDS011;9221;42.646;23.380;2024-03-02T01:01:35;42.17;;;11.17;;
3967;SDS011;9221;42.646;23.380;2024-03-02T01:04:01;34.50;;;11.70;;
3967;SDS011;9221;42.646;23.380;2024-03-02T01:06:26;29.10;;;10.07;;
3967;SDS011;9221;42.646;23.380;2024-03-02T01:08:52;33.20;;;10.87;;
3967;SDS011;9221;42.646;23.380;2024-03-02T01:11:18;37.20;;;12.40;;
3967;SDS011;9221;42.646;23.380;2024-03-02T01:13:47;45.23;;;13.10;;
3967;SDS011;9221;42.646;23.380;2024-03-02T01:16:13;33.70;;;12.87;;
3967;SDS011;9221;42.646;23.380;2024-03-02T01:18:41;38.37;;;12.20;;
3967;SDS011;9221;42.646;23.380;2024-03-02T01:21:07;41.63;;;12.33;;
3967;SDS011;9221;42.646;23.380;2024-03-02T01:23:33;43.87;;;12.07;;
3967;SDS011;9221;42.646;23.380;2024-03-02T01:25:58;34.03;;;11.93;;
3967;SDS011;9221;42.646;23.380;2024-03-02T01:28:24;34.97;;;12.00;;
3967;SDS011;9221;42.646;23.380;2024-03-02T01:30:49;38.17;;;11.20;;
3967;SDS011;9221;42.646;23.380;2024-03-02T01:33:16;39.27;;;12.87;;
3967;SDS011;9221;42.646;23.380;2024-03-02T01:35:43;39.40;;;12.60;;
3967;SDS011;9221;42.646;23.380;2024-03-02T01:38:08;38.47;;;12.40;;
3967;SDS011;9221;42.646;23.380;2024-03-02T01:40:34;35.60;;;10.90;;
3967;SDS011;9221;42.646;23.380;2024-03-02T01:43:01;29.57;;;10.40;;
3967;SDS011;9221;42.646;23.380;2024-03-02T01:45:27;29.47;;;11.00;;
3967;SDS011;9221;42.646;23.380;2024-03-02T01:47:53;35.60;;;13.20;;
3967;SDS011;9221;42.646;23.380;2024-03-02T01:50:28;36.23;;;10.90;;
3967;SDS011;9221;42.646;23.380;2024-03-02T01:52:56;35.17;;;10.60;;
3967;SDS011;9221;42.646;23.380;2024-03-02T01:55:22;33.73;;;11.40;;
3967;SDS011;9221;42.646;23.380;2024-03-02T01:57:48;35.73;;;10.93;;
3967;SDS011;9221;42.646;23.380;2024-03-02T02:00:16;37.50;;;11.90;;
3967;SDS011;9221;42.646;23.380;2024-03-02T02:02:42;38.63;;;12.33;;
3967;SDS011;9221;42.646;23.380;2024-03-02T02:05:08;46.83;;;13.70;;
3967;SDS011;9221;42.646;23.380;2024-03-02T02:07:34;38.37;;;12.07;;
3967;SDS011;9221;42.646;23.380;2024-03-02T02:10:00;37.83;;;12.80;;
3967;SDS011;9221;42.646;23.380;2024-03-02T02:12:26;44.20;;;14.53;;
3967;SDS011;9221;42.646;23.380;2024-03-02T02:14:52;38.80;;;13.23;;
3967;SDS011;9221;42.646;23.380;2024-03-02T02:17:17;44.70;;;14.07;;
3967;SDS011;9221;42.646;23.380;2024-03-02T02:19:43;42.57;;;13.70;;
3967;SDS011;9221;42.646;23.380;2024-03-02T02:22:11;41.90;;;12.87;;
3967;SDS011;9221;42.646;23.380;2024-03-02T02:24:40;42.90;;;15.33;;
3967;SDS011;9221;42.646;23.380;2024-03-02T02:27:07;48.73;;;15.00;;
3967;SDS011;9221;42.646;23.380;2024-03-02T02:29:35;49.00;;;14.43;;
3967;SDS011;9221;42.646;23.380;2024-03-02T02:32:01;45.20;;;13.70;;
3967;SDS011;9221;42.646;23.380;2024-03-02T02:34:27;40.80;;;14.17;;
3967;SDS011;9221;42.646;23.380;2024-03-02T02:36:53;40.03;;;14.63;;
3967;SDS011;9221;42.646;23.380;2024-03-02T02:39:19;45.30;;;13.70;;
3967;SDS011;9221;42.646;23.380;2024-03-02T02:41:47;40.63;;;13.50;;
3967;SDS011;9221;42.646;23.380;2024-03-02T02:44:12;48.67;;;15.30;;
3967;SDS011;9221;42.646;23.380;2024-03-02T02:46:38;48.13;;;15.43;;
3967;SDS011;9221;42.646;23.380;2024-03-02T02:49:04;39.43;;;13.90;;
3967;SDS011;9221;42.646;23.380;2024-03-02T02:51:30;48.53;;;14.47;;
3967;SDS011;9221;42.646;23.380;2024-03-02T02:53:56;37.77;;;13.40;;
3967;SDS011;9221;42.646;23.380;2024-03-02T02:56:21;53.30;;;14.70;;
3967;SDS011;9221;42.646;23.380;2024-03-02T02:58:47;38.57;;;13.67;;
3967;SDS011;9221;42.646;23.380;2024-03-02T03:01:12;40.70;;;12.80;;
3967;SDS011;9221;42.646;23.380;2024-03-02T03:03:38;42.07;;;13.27;;
3967;SDS011;9221;42.646;23.380;2024-03-02T03:06:04;43.83;;;14.20;;
3967;SDS011;9221;42.646;23.380;2024-03-02T03:08:29;42.90;;;13.63;;
3967;SDS011;9221;42.646;23.380;2024-03-02T03:10:55;41.50;;;14.30;;
3967;SDS011;9221;42.646;23.380;2024-03-02T03:13:20;42.23;;;13.00;;
3967;SDS011;9221;42.646;23.380;2024-03-02T03:15:46;42.73;;;13.70;;
3967;SDS011;9221;42.646;23.380;2024-03-02T03:18:11;34.43;;;12.40;;
3967;SDS011;9221;42.646;23.380;2024-03-02T03:20:37;42.00;;;14.47;;
3967;SDS011;9221;42.646;23.380;2024-03-02T03:23:02;44.03;;;14.03;;
3967;SDS011;9221;42.646;23.380;2024-03-02T03:25:29;38.20;;;13.53;;
3967;SDS011;9221;42.646;23.380;2024-03-02T03:27:55;38.10;;;13.27;;
3967;SDS011;9221;42.646;23.380;2024-03-02T03:30:20;47.30;;;14.70;;
3967;SDS011;9221;42.646;23.380;2024-03-02T03:32:46;36.20;;;12.93;;
3967;SDS011;9221;42.646;23.380;2024-03-02T03:35:13;43.30;;;13.87;;
3967;SDS011;9221;42.646;23.380;2024-03-02T03:37:40;38.97;;;13.10;;
3967;SDS011;9221;42.646;23.380;2024-03-02T03:40:05;37.37;;;12.73;;
3967;SDS011;9221;42.646;23.380;2024-03-02T03:42:35;38.73;;;13.03;;
3967;SDS011;9221;42.646;23.380;2024-03-02T03:45:01;45.77;;;13.10;;
3967;SDS011;9221;42.646;23.380;2024-03-02T03:47:26;41.10;;;13.27;;
3967;SDS011;9221;42.646;23.380;2024-03-02T03:49:52;34.67;;;13.13;;
3967;SDS011;9221;42.646;23.380;2024-03-02T03:52:17;37.23;;;12.33;;
3967;SDS011;9221;42.646;23.380;2024-03-02T03:54:42;27.00;;;10.67;;
3967;SDS011;9221;42.646;23.380;2024-03-02T03:57:09;44.90;;;13.33;;
3967;SDS011;9221;42.646;23.380;2024-03-02T03:59:35;45.03;;;13.83;;
3967;SDS011;9221;42.646;23.380;2024-03-02T04:02:02;38.57;;;12.90;;
3967;SDS011;9221;42.646;23.380;2024-03-02T04:04:28;46.57;;;14.80;;
3967;SDS011;9221;42.646;23.380;2024-03-02T04:06:53;46.60;;;14.40;;
3967;SDS011;9221;42.646;23.380;2024-03-02T04:09:19;41.27;;;13.63;;
3967;SDS011;9221;42.646;23.380;2024-03-02T04:11:44;48.10;;;15.17;;
3967;SDS011;9221;42.646;23.380;2024-03-02T04:14:10;47.03;;;13.77;;
3967;SDS011;9221;42.646;23.380;2024-03-02T04:16:37;43.47;;;12.53;;
3967;SDS011;9221;42.646;23.380;2024-03-02T04:19:03;46.90;;;15.20;;
3967;SDS011;9221;42.646;23.380;2024-03-02T04:21:29;46.77;;;14.30;;
3967;SDS011;9221;42.646;23.380;2024-03-02T04:23:54;49.27;;;14.63;;
3967;SDS011;9221;42.646;23.380;2024-03-02T04:26:23;51.43;;;14.47;;
3967;SDS011;9221;42.646;23.380;2024-03-02T04:28:50;50.30;;;13.67;;
3967;SDS011;9221;42.646;23.380;2024-03-02T04:31:16;40.53;;;12.80;;
3967;SDS011;9221;42.646;23.380;2024-03-02T04:33:42;40.73;;;13.10;;
3967;SDS011;9221;42.646;23.380;2024-03-02T04:36:07;38.50;;;13.73;;
3967;SDS011;9221;42.646;23.380;2024-03-02T04:38:34;34.60;;;12.80;;
3967;SDS011;9221;42.646;23.380;2024-03-02T04:41:00;42.43;;;12.93;;
3967;SDS011;9221;42.646;23.380;2024-03-02T04:43:26;38.80;;;12.57;;
3967;SDS011;9221;42.646;23.380;2024-03-02T04:45:51;40.20;;;12.63;;
3967;SDS011;9221;42.646;23.380;2024-03-02T04:48:17;40.57;;;13.70;;
3967;SDS011;9221;42.646;23.380;2024-03-02T04:50:42;42.93;;;13.93;;
3967;SDS011;9221;42.646;23.380;2024-03-02T04:53:07;34.60;;;11.40;;
3967;SDS011;9221;42.646;23.380;2024-03-02T04:55:33;37.13;;;13.50;;
3967;SDS011;9221;42.646;23.380;2024-03-02T04:57:58;42.87;;;13.60;;
3967;SDS011;9221;42.646;23.380;2024-03-02T05:00:24;40.30;;;12.60;;
3967;SDS011;9221;42.646;23.380;2024-03-02T05:03:11;43.87;;;14.33;;
3967;SDS011;9221;42.646;23.380;2024-03-02T05:05:36;43.13;;;13.90;;
3967;SDS011;9221;42.646;23.380;2024-03-02T05:08:03;36.77;;;13.00;;
3967;SDS011;9221;42.646;23.380;2024-03-02T05:10:29;44.23;;;14.70;;
3967;SDS011;9221;42.646;23.380;2024-03-02T05:12:54;41.50;;;13.10;;
3967;SDS011;9221;42.646;23.380;2024-03-02T05:15:24;44.53;;;13.40;;
3967;SDS011;9221;42.646;23.380;2024-03-02T05:17:50;33.30;;;11.50;;
3967;SDS011;9221;42.646;23.380;2024-03-02T05:20:15;38.10;;;12.80;;
3967;SDS011;9221;42.646;23.380;2024-03-02T05:22:42;37.57;;;12.40;;
3967;SDS011;9221;42.646;23.380;2024-03-02T05:25:07;38.20;;;11.57;;
3967;SDS011;9221;42.646;23.380;2024-03-02T05:27:34;46.57;;;13.00;;
3967;SDS011;9221;42.646;23.380;2024-03-02T05:30:00;34.30;;;11.33;;
3967;SDS011;9221;42.646;23.380;2024-03-02T05:32:26;32.53;;;11.47;;
3967;SDS011;9221;42.646;23.380;2024-03-02T05:34:52;50.00;;;13.47;;
3967;SDS011;9221;42.646;23.380;2024-03-02T05:37:18;36.93;;;12.97;;
3967;SDS011;9221;42.646;23.380;2024-03-02T05:39:43;38.97;;;11.77;;
3967;SDS011;9221;42.646;23.380;2024-03-02T05:42:09;40.73;;;11.77;;
3967;SDS011;9221;42.646;23.380;2024-03-02T05:44:35;36.10;;;11.70;;
3967;SDS011;9221;42.646;23.380;2024-03-02T05:47:01;35.53;;;12.10;;
3967;SDS011;9221;42.646;23.380;2024-03-02T05:49:28;39.00;;;12.60;;
3967;SDS011;9221;42.646;23.380;2024-03-02T05:51:53;36.97;;;12.60;;
3967;SDS011;9221;42.646;23.380;2024-03-02T05:54:19;38.03;;;13.13;;
3967;SDS011;9221;42.646;23.380;2024-03-02T05:56:44;40.33;;;12.57;;
3967;SDS011;9221;42.646;23.380;2024-03-02T05:59:09;40.40;;;13.53;;
3967;SDS011;9221;42.646;23.380;2024-03-02T06:01:44;39.70;;;12.90;;
3967;SDS011;9221;42.646;23.380;2024-03-02T06:04:11;42.37;;;13.70;;
3967;SDS011;9221;42.646;23.380;2024-03-02T06:06:38;46.60;;;14.80;;
3967;SDS011;9221;42.646;23.380;2024-03-02T06:09:04;45.27;;;14.10;;
3967;SDS011;9221;42.646;23.380;2024-03-02T06:11:33;39.50;;;14.00;;
3967;SDS011;9221;42.646;23.380;2024-03-02T06:13:59;42.00;;;13.17;;
3967;SDS011;9221;42.646;23.380;2024-03-02T06:16:24;45.37;;;14.50;;
3967;SDS011;9221;42.646;23.380;2024-03-02T06:18:50;42.67;;;13.07;;
3967;SDS011;9221;42.646;23.380;2024-03-02T06:21:16;36.00;;;13.33;;
3967;SDS011;9221;42.646;23.380;2024-03-02T06:23:43;44.17;;;12.80;;
3967;SDS011;9221;42.646;23.380;2024-03-02T06:26:09;41.83;;;13.27;;
3967;SDS011;9221;42.646;23.380;2024-03-02T06:28:34;41.87;;;13.20;;
3967;SDS011;9221;42.646;23.380;2024-03-02T06:31:00;55.70;;;14.43;;
3967;SDS011;9221;42.646;23.380;2024-03-02T06:33:26;43.13;;;14.07;;
3967;SDS011;9221;42.646;23.380;2024-03-02T06:35:51;34.47;;;12.30;;
3967;SDS011;9221;42.646;23.380;2024-03-02T06:38:17;47.30;;;14.87;;
3967;SDS011;9221;42.646;23.380;2024-03-02T06:41:01;49.20;;;14.93;;
3967;SDS011;9221;42.646;23.380;2024-03-02T06:43:26;54.13;;;15.30;;
3967;SDS011;9221;42.646;23.380;2024-03-02T06:45:52;43.83;;;13.60;;
3967;SDS011;9221;42.646;23.380;2024-03-02T06:48:18;38.87;;;13.17;;
3967;SDS011;9221;42.646;23.380;2024-03-02T06:50:47;48.30;;;14.33;;
3967;SDS011;9221;42.646;23.380;2024-03-02T06:53:14;56.47;;;15.23;;
3967;SDS011;9221;42.646;23.380;2024-03-02T06:55:42;37.67;;;12.67;;
3967;SDS011;9221;42.646;23.380;2024-03-02T06:58:11;38.27;;;13.00;;
3967;SDS011;9221;42.646;23.380;2024-03-02T07:00:38;47.00;;;12.40;;
3967;SDS011;9221;42.646;23.380;2024-03-02T07:03:03;35.37;;;11.80;;
3967;SDS011;9221;42.646;23.380;2024-03-02T07:05:29;44.10;;;12.90;;
3967;SDS011;9221;42.646;23.380;2024-03-02T07:07:54;43.27;;;13.27;;
3967;SDS011;9221;42.646;23.380;2024-03-02T07:10:20;51.03;;;13.23;;
3967;SDS011;9221;42.646;23.380;2024-03-02T07:12:45;54.83;;;14.00;;
3967;SDS011;9221;42.646;23.380;2024-03-02T07:15:11;52.90;;;15.37;;
3967;SDS011;9221;42.646;23.380;2024-03-02T07:17:46;46.27;;;14.57;;
3967;SDS011;9221;42.646;23.380;2024-03-02T07:20:12;44.47;;;14.63;;
3967;SDS011;9221;42.646;23.380;2024-03-02T07:22:38;43.40;;;14.63;;
3967;SDS011;9221;42.646;23.380;2024-03-02T07:25:04;35.60;;;12.00;;
3967;SDS011;9221;42.646;23.380;2024-03-02T07:27:32;47.07;;;14.17;;
3967;SDS011;9221;42.646;23.380;2024-03-02T07:29:58;41.67;;;14.53;;
3967;SDS011;9221;42.646;23.380;2024-03-02T07:32:24;49.93;;;14.40;;
3967;SDS011;9221;42.646;23.380;2024-03-02T07:34:49;41.83;;;12.87;;
3967;SDS011;9221;42.646;23.380;2024-03-02T07:37:16;39.87;;;13.70;;
3967;SDS011;9221;42.646;23.380;2024-03-02T07:39:43;46.43;;;13.43;;
3967;SDS011;9221;42.646;23.380;2024-03-02T07:42:10;40.73;;;13.83;;
3967;SDS011;9221;42.646;23.380;2024-03-02T07:44:35;37.03;;;13.63;;
3967;SDS011;9221;42.646;23.380;2024-03-02T07:47:01;55.03;;;15.00;;
3967;SDS011;9221;42.646;23.380;2024-03-02T07:49:26;56.90;;;14.93;;
3967;SDS011;9221;42.646;23.380;2024-03-02T07:51:52;42.57;;;13.63;;
3967;SDS011;9221;42.646;23.380;2024-03-02T07:54:17;37.00;;;13.10;;
3967;SDS011;9221;42.646;23.380;2024-03-02T07:56:43;48.97;;;13.10;;
3967;SDS011;9221;42.646;23.380;2024-03-02T07:59:09;43.90;;;14.40;;
3967;SDS011;9221;42.646;23.380;2024-03-02T08:01:35;44.03;;;13.00;;
3967;SDS011;9221;42.646;23.380;2024-03-02T08:04:01;35.80;;;12.97;;
3967;SDS011;9221;42.646;23.380;2024-03-02T08:06:29;40.73;;;12.67;;
3967;SDS011;9221;42.646;23.380;2024-03-02T08:08:55;42.73;;;14.67;;
3967;SDS011;9221;42.646;23.380;2024-03-02T08:11:22;50.33;;;14.60;;
3967;SDS011;9221;42.646;23.380;2024-03-02T08:13:48;49.23;;;14.77;;
3967;SDS011;9221;42.646;23.380;2024-03-02T08:16:16;49.27;;;14.70;;
3967;SDS011;9221;42.646;23.380;2024-03-02T08:18:45;39.87;;;12.90;;
3967;SDS011;9221;42.646;23.380;2024-03-02T08:21:11;45.97;;;13.90;;
3967;SDS011;9221;42.646;23.380;2024-03-02T08:23:37;40.13;;;12.17;;
3967;SDS011;9221;42.646;23.380;2024-03-02T08:26:03;38.30;;;13.30;;
3967;SDS011;9221;42.646;23.380;2024-03-02T08:28:29;38.80;;;12.17;;
3967;SDS011;9221;42.646;23.380;2024-03-02T08:30:54;35.60;;;12.03;;
3967;SDS011;9221;42.646;23.380;2024-03-02T08:33:20;39.20;;;12.43;;
3967;SDS011;9221;42.646;23.380;2024-03-02T08:35:45;36.07;;;11.80;;
3967;SDS011;9221;42.646;23.380;2024-03-02T08:38:11;36.40;;;12.30;;
3967;SDS011;9221;42.646;23.380;2024-03-02T08:40:37;30.53;;;11.17;;
3967;SDS011;9221;42.646;23.380;2024-03-02T08:43:03;36.83;;;11.57;;
3967;SDS011;9221;42.646;23.380;2024-03-02T08:45:28;40.50;;;12.47;;
3967;SDS011;9221;42.646;23.380;2024-03-02T08:47:54;34.07;;;11.57;;
3967;SDS011;9221;42.646;23.380;2024-03-02T08:50:19;35.10;;;11.40;;
3967;SDS011;9221;42.646;23.380;2024-03-02T08:52:45;29.63;;;11.33;;
3967;SDS011;9221;42.646;23.380;2024-03-02T08:55:10;43.70;;;12.97;;
3967;SDS011;9221;42.646;23.380;2024-03-02T08:57:36;38.13;;;13.43;;
3967;SDS011;9221;42.646;23.380;2024-03-02T09:00:02;37.90;;;13.33;;
3967;SDS011;9221;42.646;23.380;2024-03-02T09:02:28;38.70;;;13.30;;
3967;SDS011;9221;42.646;23.380;2024-03-02T09:04:53;47.00;;;14.67;;
3967;SDS011;9221;42.646;23.380;2024-03-02T09:07:19;48.23;;;12.33;;
3967;SDS011;9221;42.646;23.380;2024-03-02T09:09:44;39.13;;;11.80;;
3967;SDS011;9221;42.646;23.380;2024-03-02T09:12:10;50.00;;;14.13;;
3967;SDS011;9221;42.646;23.380;2024-03-02T09:14:36;33.20;;;10.87;;
3967;SDS011;9221;42.646;23.380;2024-03-02T09:17:02;47.23;;;13.20;;
3967;SDS011;9221;42.646;23.380;2024-03-02T09:19:29;34.47;;;10.73;;
3967;SDS011;9221;42.646;23.380;2024-03-02T09:21:54;37.33;;;10.50;;
3967;SDS011;9221;42.646;23.380;2024-03-02T09:24:21;28.33;;;9.37;;
3967;SDS011;9221;42.646;23.380;2024-03-02T09:26:46;27.30;;;9.53;;
3967;SDS011;9221;42.646;23.380;2024-03-02T09:29:12;39.27;;;12.70;;
3967;SDS011;9221;42.646;23.380;2024-03-02T09:31:42;35.47;;;10.00;;
3967;SDS011;9221;42.646;23.380;2024-03-02T09:34:08;32.23;;;11.43;;
3967;SDS011;9221;42.646;23.380;2024-03-02T09:36:34;35.23;;;11.77;;
3967;SDS011;9221;42.646;23.380;2024-03-02T09:38:59;44.20;;;13.00;;
3967;SDS011;9221;42.646;23.380;2024-03-02T09:41:25;37.23;;;11.50;;
3967;SDS011;9221;42.646;23.380;2024-03-02T09:43:50;43.60;;;13.50;;
3967;SDS011;9221;42.646;23.380;2024-03-02T09:46:16;37.13;;;11.13;;
3967;SDS011;9221;42.646;23.380;2024-03-02T09:48:42;39.60;;;11.57;;
3967;SDS011;9221;42.646;23.380;2024-03-02T09:51:09;37.03;;;12.93;;
3967;SDS011;9221;42.646;23.380;2024-03-02T09:53:36;34.80;;;11.50;;
3967;SDS011;9221;42.646;23.380;2024-03-02T09:56:02;30.60;;;10.40;;
3967;SDS011;9221;42.646;23.380;2024-03-02T09:58:29;42.87;;;13.20;;
3967;SDS011;9221;42.646;23.380;2024-03-02T10:00:55;34.17;;;12.20;;
3967;SDS011;9221;42.646;23.380;2024-03-02T10:03:21;40.50;;;13.37;;
3967;SDS011;9221;42.646;23.380;2024-03-02T10:05:48;47.07;;;14.00;;
3967;SDS011;9221;42.646;23.380;2024-03-02T10:08:13;44.10;;;15.93;;
3967;SDS011;9221;42.646;23.380;2024-03-02T10:10:40;52.20;;;15.73;;
3967;SDS011;9221;42.646;23.380;2024-03-02T10:13:08;50.40;;;14.93;;
3967;SDS011;9221;42.646;23.380;2024-03-02T10:15:38;44.13;;;14.37;;
3967;SDS011;9221;42.646;23.380;2024-03-02T10:18:08;45.60;;;15.30;;
3967;SDS011;9221;42.646;23.380;2024-03-02T10:20:35;51.13;;;15.00;;
3967;SDS011;9221;42.646;23.380;2024-03-02T10:23:14;41.23;;;14.17;;
3967;SDS011;9221;42.646;23.380;2024-03-02T10:25:41;42.53;;;14.07;;
3967;SDS011;9221;42.646;23.380;2024-03-02T10:28:08;44.20;;;13.20;;
3967;SDS011;9221;42.646;23.380;2024-03-02T10:30:34;35.10;;;13.27;;
3967;SDS011;9221;42.646;23.380;2024-03-02T10:33:01;34.93;;;11.83;;
3967;SDS011;9221;42.646;23.380;2024-03-02T10:35:27;39.17;;;13.13;;
3967;SDS011;9221;42.646;23.380;2024-03-02T10:37:53;47.77;;;14.23;;
3967;SDS011;9221;42.646;23.380;2024-03-02T10:40:21;35.20;;;12.17;;
3967;SDS011;9221;42.646;23.380;2024-03-02T10:42:48;34.00;;;11.33;;
3967;SDS011;9221;42.646;23.380;2024-03-02T10:45:15;42.20;;;12.87;;
3967;SDS011;9221;42.646;23.380;2024-03-02T10:47:42;37.93;;;11.67;;
3967;SDS011;9221;42.646;23.380;2024-03-02T10:50:09;34.80;;;11.70;;
3967;SDS011;9221;42.646;23.380;2024-03-02T10:52:35;33.17;;;11.07;;
3967;SDS011;9221;42.646;23.380;2024-03-02T10:55:01;31.47;;;11.10;;
3967;SDS011;9221;42.646;23.380;2024-03-02T10:57:37;35.17;;;11.43;;
3967;SDS011;9221;42.646;23.380;2024-03-02T11:00:08;28.30;;;10.00;;
3967;SDS011;9221;42.646;23.380;2024-03-02T11:02:41;28.90;;;10.93;;
3967;SDS011;9221;42.646;23.380;2024-03-02T11:05:12;38.40;;;11.43;;
3967;SDS011;9221;42.646;23.380;2024-03-02T11:07:57;39.90;;;12.30;;
3967;SDS011;9221;42.646;23.380;2024-03-02T11:10:30;32.37;;;11.10;;
3967;SDS011;9221;42.646;23.380;2024-03-02T11:13:00;36.33;;;12.10;;
3967;SDS011;9221;42.646;23.380;2024-03-02T11:15:30;32.93;;;10.67;;
3967;SDS011;9221;42.646;23.380;2024-03-02T11:17:58;30.17;;;10.30;;
3967;SDS011;9221;42.646;23.380;2024-03-02T11:20:24;29.00;;;9.83;;
3967;SDS011;9221;42.646;23.380;2024-03-02T11:22:51;28.83;;;10.03;;
3967;SDS011;9221;42.646;23.380;2024-03-02T11:25:23;29.77;;;10.40;;
3967;SDS011;9221;42.646;23.380;2024-03-02T11:31:03;33.97;;;9.27;;
3967;SDS011;9221;42.646;23.380;2024-03-02T11:33:09;35.00;;;11.93;;
3967;SDS011;9221;42.646;23.380;2024-03-02T11:35:36;30.80;;;9.87;;
3967;SDS011;9221;42.646;23.380;2024-03-02T11:38:02;30.37;;;10.50;;
3967;SDS011;9221;42.646;23.380;2024-03-02T11:40:29;31.83;;;10.83;;
3967;SDS011;9221;42.646;23.380;2024-03-02T11:42:55;31.40;;;10.90;;
3967;SDS011;9221;42.646;23.380;2024-03-02T11:45:22;29.13;;;10.37;;
3967;SDS011;9221;42.646;23.380;2024-03-02T11:47:55;25.60;;;9.83;;
3967;SDS011;9221;42.646;23.380;2024-03-02T11:53:07;30.00;;;9.20;;
3967;SDS011;9221;42.646;23.380;2024-03-02T11:55:35;31.07;;;9.57;;
3967;SDS011;9221;42.646;23.380;2024-03-02T11:58:04;24.10;;;9.27;;
3967;SDS011;9221;42.646;23.380;2024-03-02T12:00:30;20.97;;;8.53;;
3967;SDS011;9221;42.646;23.380;2024-03-02T12:03:00;21.60;;;7.70;;
3967;SDS011;9221;42.646;23.380;2024-03-02T12:05:27;19.17;;;7.27;;
3967;SDS011;9221;42.646;23.380;2024-03-02T12:07:57;21.57;;;7.70;;
3967;SDS011;9221;42.646;23.380;2024-03-02T12:10:23;26.43;;;8.67;;
3967;SDS011;9221;42.646;23.380;2024-03-02T12:12:56;23.30;;;7.60;;
3967;SDS011;9221;42.646;23.380;2024-03-02T12:15:29;26.90;;;9.07;;
3967;SDS011;9221;42.646;23.380;2024-03-02T12:17:56;35.23;;;10.63;;
3967;SDS011;9221;42.646;23.380;2024-03-02T12:20:23;27.87;;;9.27;;
3967;SDS011;9221;42.646;23.380;2024-03-02T12:22:50;24.10;;;9.27;;
3967;SDS011;9221;42.646;23.380;2024-03-02T12:25:23;21.10;;;8.30;;
3967;SDS011;9221;42.646;23.380;2024-03-02T12:27:50;27.20;;;9.20;;
3967;SDS011;9221;42.646;23.380;2024-03-02T12:30:21;18.07;;;6.97;;
3967;SDS011;9221;42.646;23.380;2024-03-02T12:32:47;26.30;;;8.83;;
3967;SDS011;9221;42.646;23.380;2024-03-02T12:35:13;24.60;;;8.10;;
3967;SDS011;9221;42.646;23.380;2024-03-02T12:40:09;20.33;;;7.97;;
3967;SDS011;9221;42.646;23.380;2024-03-02T12:42:39;20.53;;;8.73;;
3967;SDS011;9221;42.646;23.380;2024-03-02T12:45:07;25.70;;;9.40;;
3967;SDS011;9221;42.646;23.380;2024-03-02T12:47:33;19.43;;;7.27;;
3967;SDS011;9221;42.646;23.380;2024-03-02T12:49:59;21.73;;;7.53;;
3967;SDS011;9221;42.646;23.380;2024-03-02T12:52:25;20.50;;;7.70;;
3967;SDS011;9221;42.646;23.380;2024-03-02T12:54:51;24.77;;;9.13;;
3967;SDS011;9221;42.646;23.380;2024-03-02T12:57:20;25.07;;;9.53;;
3967;SDS011;9221;42.646;23.380;2024-03-02T12:59:46;24.20;;;8.50;;
3967;SDS011;9221;42.646;23.380;2024-03-02T13:02:19;23.00;;;9.20;;
3967;SDS011;9221;42.646;23.380;2024-03-02T13:04:51;21.70;;;8.80;;
3967;SDS011;9221;42.646;23.380;2024-03-02T13:07:19;23.37;;;8.30;;
3967;SDS011;9221;42.646;23.380;2024-03-02T13:09:45;22.60;;;8.97;;
3967;SDS011;9221;42.646;23.380;2024-03-02T13:12:11;29.07;;;9.00;;
3967;SDS011;9221;42.646;23.380;2024-03-02T13:14:37;22.27;;;9.17;;
3967;SDS011;9221;42.646;23.380;2024-03-02T13:17:02;28.03;;;9.37;;
3967;SDS011;9221;42.646;23.380;2024-03-02T13:19:30;26.10;;;10.70;;
3967;SDS011;9221;42.646;23.380;2024-03-02T13:21:56;26.70;;;9.87;;
3967;SDS011;9221;42.646;23.380;2024-03-02T13:24:22;27.20;;;9.67;;
3967;SDS011;9221;42.646;23.380;2024-03-02T13:26:50;28.00;;;10.17;;
3967;SDS011;9221;42.646;23.380;2024-03-02T13:29:20;21.90;;;8.33;;
3967;SDS011;9221;42.646;23.380;2024-03-02T13:31:46;22.63;;;9.50;;
3967;SDS011;9221;42.646;23.380;2024-03-02T13:34:12;30.07;;;9.47;;
3967;SDS011;9221;42.646;23.380;2024-03-02T13:36:37;32.67;;;9.90;;
3967;SDS011;9221;42.646;23.380;2024-03-02T13:39:03;22.07;;;8.43;;
3967;SDS011;9221;42.646;23.380;2024-03-02T13:41:31;21.47;;;8.40;;
3967;SDS011;9221;42.646;23.380;2024-03-02T13:43:57;23.50;;;9.87;;
3967;SDS011;9221;42.646;23.380;2024-03-02T13:46:26;24.77;;;10.27;;
3967;SDS011;9221;42.646;23.380;2024-03-02T13:48:51;24.50;;;8.77;;
3967;SDS011;9221;42.646;23.380;2024-03-02T13:51:17;33.33;;;9.57;;
3967;SDS011;9221;42.646;23.380;2024-03-02T13:53:43;21.07;;;8.53;;
3967;SDS011;9221;42.646;23.380;2024-03-02T13:56:08;27.43;;;9.57;;
3967;SDS011;9221;42.646;23.380;2024-03-02T13:58:34;23.97;;;8.97;;
3967;SDS011;9221;42.646;23.380;2024-03-02T14:00:59;26.13;;;9.43;;
3967;SDS011;9221;42.646;23.380;2024-03-02T14:03:26;23.50;;;9.50;;
3967;SDS011;9221;42.646;23.380;2024-03-02T14:05:52;24.17;;;9.43;;
3967;SDS011;9221;42.646;23.380;2024-03-02T14:08:18;26.20;;;9.10;;
3967;SDS011;9221;42.646;23.380;2024-03-02T14:10:45;27.73;;;9.27;;
3967;SDS011;9221;42.646;23.380;2024-03-02T14:13:10;29.53;;;10.00;;
3967;SDS011;9221;42.646;23.380;2024-03-02T14:15:36;25.37;;;8.73;;
3967;SDS011;9221;42.646;23.380;2024-03-02T14:18:04;25.53;;;9.77;;
3967;SDS011;9221;42.646;23.380;2024-03-02T14:20:30;23.50;;;9.53;;
3967;SDS011;9221;42.646;23.380;2024-03-02T14:22:58;26.53;;;9.80;;
3967;SDS011;9221;42.646;23.380;2024-03-02T14:25:24;25.30;;;9.27;;
3967;SDS011;9221;42.646;23.380;2024-03-02T14:27:50;32.50;;;11.30;;
3967;SDS011;9221;42.646;23.380;2024-03-02T14:30:16;30.40;;;11.50;;
3967;SDS011;9221;42.646;23.380;2024-03-02T14:32:42;41.30;;;12.03;;
3967;SDS011;9221;42.646;23.380;2024-03-02T14:35:07;32.27;;;11.93;;
3967;SDS011;9221;42.646;23.380;2024-03-02T14:37:36;35.20;;;12.80;;
3967;SDS011;9221;42.646;23.380;2024-03-02T14:40:02;37.30;;;13.70;;
3967;SDS011;9221;42.646;23.380;2024-03-02T14:42:31;34.83;;;12.00;;